sensor_id;sensor_type;location;lat;lon;timestamp;P1;P2;P0
78512;PMS5003;67809;55.034;73.462;2023-10-19T15:46:09;24.00;19.75;13.00
78512;PMS5003;67809;55.034;73.462;2023-10-19T15:48:39;27.00;22.00;14.00
78512;PMS5003;67809;55.034;73.462;2023-10-19T15:51:05;25.00;21.00;14.00
78512;PMS5003;67809;55.034;73.462;2023-10-19T15:53:47;24.00;22.00;15.00
78512;PMS5003;67809;55.034;73.462;2023-10-19T15:56:15;29.50;24.00;16.00
78512;PMS5003;67809;55.034;73.462;2023-10-19T15:58:43;30.00;24.00;16.00
78512;PMS5003;67809;55.034;73.462;2023-10-19T16:01:09;27.00;22.00;13.25
78512;PMS5003;67809;55.034;73.462;2023-10-19T16:03:36;30.00;22.25;14.00
78512;PMS5003;67809;55.034;73.462;2023-10-19T16:06:03;33.67;26.00;16.00
78512;PMS5003;67809;55.034;73.462;2023-10-19T19:11:14;10.50;8.25;6.00
78512;PMS5003;67809;55.034;73.462;2023-10-19T19:13:41;4.50;4.00;3.00
78512;PMS5003;67809;55.034;73.462;2023-10-19T19:16:08;8.00;6.75;5.00
78512;PMS5003;67809;55.034;73.462;2023-10-19T19:18:34;8.00;7.00;5.00
78512;PMS5003;67809;55.034;73.462;2023-10-19T19:21:00;7.50;6.00;3.50
78512;PMS5003;67809;55.034;73.462;2023-10-19T19:23:30;9.00;8.00;5.00
78512;PMS5003;67809;55.034;73.462;2023-10-19T19:25:58;9.25;8.00;5.00
78512;PMS5003;67809;55.034;73.462;2023-10-19T19:28:24;9.00;7.00;5.00
78512;PMS5003;67809;55.034;73.462;2023-10-19T19:30:50;8.00;7.00;5.00
78512;PMS5003;67809;55.034;73.462;2023-10-19T19:33:16;9.00;7.00;5.00
78512;PMS5003;67809;55.034;73.462;2023-10-19T19:35:44;7.00;6.00;4.00
78512;PMS5003;67809;55.034;73.462;2023-10-19T19:38:10;8.00;7.00;5.00
78512;PMS5003;67809;55.034;73.462;2023-10-19T19:40:38;8.00;7.00;4.00
78512;PMS5003;67809;55.034;73.462;2023-10-19T19:43:05;6.00;6.00;4.00
78512;PMS5003;67809;55.034;73.462;2023-10-19T19:45:34;6.75;6.00;4.00
78512;PMS5003;67809;55.034;73.462;2023-10-19T19:48:02;6.50;6.00;4.00
78512;PMS5003;67809;55.034;73.462;2023-10-19T19:50:29;8.00;6.00;4.00
78512;PMS5003;67809;55.034;73.462;2023-10-19T19:52:55;5.00;4.00;3.00
78512;PMS5003;67809;55.034;73.462;2023-10-19T19:55:21;6.00;5.00;4.00
78512;PMS5003;67809;55.034;73.462;2023-10-19T19:57:47;6.00;5.00;4.00
78512;PMS5003;67809;55.034;73.462;2023-10-19T20:00:14;7.00;7.00;4.00
78512;PMS5003;67809;55.034;73.462;2023-10-19T20:02:42;8.00;7.00;4.00
78512;PMS5003;67809;55.034;73.462;2023-10-19T20:05:11;8.00;6.50;5.00
78512;PMS5003;67809;55.034;73.462;2023-10-19T20:07:38;6.00;6.00;4.00
78512;PMS5003;67809;55.034;73.462;2023-10-19T20:10:05;8.00;6.25;4.00
78512;PMS5003;67809;55.034;73.462;2023-10-19T20:12:34;5.00;4.50;3.00
78512;PMS5003;67809;55.034;73.462;2023-10-19T20:15:00;8.00;6.00;4.00
78512;PMS5003;67809;55.034;73.462;2023-10-19T20:17:26;6.00;5.00;3.00
78512;PMS5003;67809;55.034;73.462;2023-10-19T20:19:53;8.50;7.00;5.00
78512;PMS5003;67809;55.034;73.462;2023-10-19T20:22:20;7.00;6.00;5.00
78512;PMS5003;67809;55.034;73.462;2023-10-19T20:24:46;6.50;5.00;4.00
78512;PMS5003;67809;55.034;73.462;2023-10-19T20:27:13;7.00;6.00;4.00
78512;PMS5003;67809;55.034;73.462;2023-10-19T20:29:40;6.00;6.00;4.00
78512;PMS5003;67809;55.034;73.462;2023-10-19T20:32:06;5.00;5.00;4.00
78512;PMS5003;67809;55.034;73.462;2023-10-19T20:34:32;7.00;6.00;4.00
78512;PMS5003;67809;55.034;73.462;2023-10-19T20:36:58;7.00;5.00;3.00
78512;PMS5003;67809;55.034;73.462;2023-10-19T20:39:26;3.75;3.00;3.00
78512;PMS5003;67809;55.034;73.462;2023-10-19T20:41:52;7.00;6.00;4.00
78512;PMS5003;67809;55.034;73.462;2023-10-19T20:44:19;6.50;5.50;4.00
78512;PMS5003;67809;55.034;73.462;2023-10-19T20:46:50;7.00;7.00;4.00
78512;PMS5003;67809;55.034;73.462;2023-10-19T20:49:16;6.50;6.00;4.00
78512;PMS5003;67809;55.034;73.462;2023-10-19T20:51:43;6.00;5.25;4.00
78512;PMS5003;67809;55.034;73.462;2023-10-19T20:54:09;6.00;5.25;4.00
78512;PMS5003;67809;55.034;73.462;2023-10-19T20:56:37;8.00;6.00;5.00
78512;PMS5003;67809;55.034;73.462;2023-10-19T20:59:03;6.00;5.00;4.00
78512;PMS5003;67809;55.034;73.462;2023-10-19T21:01:29;6.00;5.00;4.00
78512;PMS5003;67809;55.034;73.462;2023-10-19T21:03:55;7.25;7.00;4.00
78512;PMS5003;67809;55.034;73.462;2023-10-19T21:06:24;8.00;6.00;4.00
78512;PMS5003;67809;55.034;73.462;2023-10-19T21:08:58;5.25;5.00;4.00
78512;PMS5003;67809;55.034;73.462;2023-10-19T21:11:25;9.00;7.00;4.00
78512;PMS5003;67809;55.034;73.462;2023-10-19T21:13:51;7.00;6.00;4.00
78512;PMS5003;67809;55.034;73.462;2023-10-19T21:16:17;7.00;6.00;4.00
78512;PMS5003;67809;55.034;73.462;2023-10-19T21:18:43;8.00;6.00;5.00
78512;PMS5003;67809;55.034;73.462;2023-10-19T21:21:10;8.00;7.00;4.00
78512;PMS5003;67809;55.034;73.462;2023-10-19T21:23:36;7.25;6.25;4.00
78512;PMS5003;67809;55.034;73.462;2023-10-19T21:26:05;6.00;6.00;4.00
78512;PMS5003;67809;55.034;73.462;2023-10-19T21:28:34;10.00;8.00;6.00
78512;PMS5003;67809;55.034;73.462;2023-10-19T21:31:00;8.00;8.00;5.00
78512;PMS5003;67809;55.034;73.462;2023-10-19T21:33:27;9.00;7.00;5.00
78512;PMS5003;67809;55.034;73.462;2023-10-19T21:35:53;8.50;7.25;6.00
78512;PMS5003;67809;55.034;73.462;2023-10-19T21:38:20;11.00;9.00;5.00
78512;PMS5003;67809;55.034;73.462;2023-10-19T21:40:46;10.00;8.33;5.00
78512;PMS5003;67809;55.034;73.462;2023-10-19T21:43:12;13.00;10.00;6.00
78512;PMS5003;67809;55.034;73.462;2023-10-19T21:45:39;9.00;8.00;5.00
78512;PMS5003;67809;55.034;73.462;2023-10-19T21:48:06;8.50;7.00;5.00
78512;PMS5003;67809;55.034;73.462;2023-10-19T21:50:33;10.00;8.00;6.00
78512;PMS5003;67809;55.034;73.462;2023-10-19T21:52:59;13.00;10.00;7.00
78512;PMS5003;67809;55.034;73.462;2023-10-19T21:55:25;12.00;9.00;7.00
78512;PMS5003;67809;55.034;73.462;2023-10-19T21:57:51;12.00;10.00;7.00
78512;PMS5003;67809;55.034;73.462;2023-10-19T22:00:18;13.00;10.00;7.00
78512;PMS5003;67809;55.034;73.462;2023-10-19T22:02:52;10.00;9.00;6.00
78512;PMS5003;67809;55.034;73.462;2023-10-19T22:05:18;10.50;9.00;6.00
78512;PMS5003;67809;55.034;73.462;2023-10-19T22:07:45;11.75;10.00;7.00
78512;PMS5003;67809;55.034;73.462;2023-10-19T22:10:11;12.67;10.33;7.00
78512;PMS5003;67809;55.034;73.462;2023-10-19T22:12:38;13.50;9.75;7.00
78512;PMS5003;67809;55.034;73.462;2023-10-19T22:15:04;13.25;11.00;7.00
78512;PMS5003;67809;55.034;73.462;2023-10-19T22:17:30;14.00;11.00;7.00
78512;PMS5003;67809;55.034;73.462;2023-10-19T22:19:56;17.00;12.50;8.50
78512;PMS5003;67809;55.034;73.462;2023-10-19T22:22:23;18.00;14.00;9.00
78512;PMS5003;67809;55.034;73.462;2023-10-19T22:24:50;16.75;14.00;8.00
78512;PMS5003;67809;55.034;73.462;2023-10-19T22:27:16;18.00;14.00;8.00
78512;PMS5003;67809;55.034;73.462;2023-10-19T22:29:42;19.00;16.00;10.75
78512;PMS5003;67809;55.034;73.462;2023-10-19T22:32:08;14.50;12.25;8.25
78512;PMS5003;67809;55.034;73.462;2023-10-19T22:34:35;13.00;11.00;7.00
78512;PMS5003;67809;55.034;73.462;2023-10-19T22:37:02;14.75;11.00;8.00
78512;PMS5003;67809;55.034;73.462;2023-10-19T22:39:28;12.00;11.00;7.75
78512;PMS5003;67809;55.034;73.462;2023-10-19T22:41:56;12.33;10.33;7.00
78512;PMS5003;67809;55.034;73.462;2023-10-19T22:44:22;12.00;10.00;7.00
78512;PMS5003;67809;55.034;73.462;2023-10-19T22:46:48;12.00;10.50;7.00
78512;PMS5003;67809;55.034;73.462;2023-10-19T22:49:14;18.00;13.50;9.00
78512;PMS5003;67809;55.034;73.462;2023-10-19T22:51:40;11.00;9.00;6.00
78512;PMS5003;67809;55.034;73.462;2023-10-19T22:54:07;12.75;11.00;7.00
78512;PMS5003;67809;55.034;73.462;2023-10-19T22:56:33;15.00;13.00;8.00
78512;PMS5003;67809;55.034;73.462;2023-10-19T22:58:59;15.00;12.00;8.25
78512;PMS5003;67809;55.034;73.462;2023-10-19T23:01:25;14.25;12.25;8.50
78512;PMS5003;67809;55.034;73.462;2023-10-19T23:04:05;12.00;11.00;8.00
78512;PMS5003;67809;55.034;73.462;2023-10-19T23:06:32;17.00;14.00;9.00
78512;PMS5003;67809;55.034;73.462;2023-10-19T23:08:58;15.25;13.00;9.25
78512;PMS5003;67809;55.034;73.462;2023-10-19T23:11:26;14.00;12.00;9.00
78512;PMS5003;67809;55.034;73.462;2023-10-19T23:13:55;13.00;11.00;8.00
78512;PMS5003;67809;55.034;73.462;2023-10-19T23:16:23;14.00;12.00;9.00
78512;PMS5003;67809;55.034;73.462;2023-10-19T23:18:52;12.25;10.00;7.00
78512;PMS5003;67809;55.034;73.462;2023-10-19T23:21:20;13.00;11.00;7.00
78512;PMS5003;67809;55.034;73.462;2023-10-19T23:23:49;13.75;11.00;7.00
78512;PMS5003;67809;55.034;73.462;2023-10-19T23:26:16;14.00;11.00;7.25
78512;PMS5003;67809;55.034;73.462;2023-10-19T23:28:46;17.00;12.00;8.00
78512;PMS5003;67809;55.034;73.462;2023-10-19T23:31:15;16.00;13.00;9.00
78512;PMS5003;67809;55.034;73.462;2023-10-19T23:33:48;14.00;12.00;8.00
78512;PMS5003;67809;55.034;73.462;2023-10-19T23:36:15;13.00;11.00;7.00
78512;PMS5003;67809;55.034;73.462;2023-10-19T23:38:41;12.00;10.00;6.00
78512;PMS5003;67809;55.034;73.462;2023-10-19T23:41:07;14.25;11.50;7.00
78512;PMS5003;67809;55.034;73.462;2023-10-19T23:43:34;12.00;11.00;6.00
78512;PMS5003;67809;55.034;73.462;2023-10-19T23:46:03;14.00;11.25;8.00
78512;PMS5003;67809;55.034;73.462;2023-10-19T23:48:29;11.00;10.00;7.00
78512;PMS5003;67809;55.034;73.462;2023-10-19T23:50:56;13.20;10.20;6.60
78512;PMS5003;67809;55.034;73.462;2023-10-19T23:53:22;14.75;12.00;8.00
78512;PMS5003;67809;55.034;73.462;2023-10-19T23:55:48;20.50;17.00;10.50
78512;PMS5003;67809;55.034;73.462;2023-10-19T23:58:14;17.00;15.00;9.00
